createdAt,value
2023-02-07T00:01:17.110Z,78.90
2023-02-07T00:03:45.577Z,78.90
2023-02-07T00:06:18.635Z,79.00
2023-02-07T00:08:46.266Z,79.00
2023-02-07T00:11:20.169Z,79.00
2023-02-07T00:13:50.595Z,79.00
2023-02-07T00:16:17.634Z,79.00
2023-02-07T00:18:44.615Z,79.00
2023-02-07T00:21:15.039Z,79.10
2023-02-07T00:23:45.281Z,79.00
2023-02-07T00:26:13.815Z,79.00
2023-02-07T00:28:40.650Z,79.10
2023-02-07T00:31:14.400Z,79.00
2023-02-07T00:33:45.368Z,79.20
2023-02-07T00:36:17.859Z,79.20
2023-02-07T00:38:45.393Z,79.10
2023-02-07T00:41:18.656Z,79.10
2023-02-07T00:43:47.346Z,79.10
2023-02-07T00:46:14.824Z,79.10
2023-02-07T00:48:41.705Z,79.10
2023-02-07T00:51:09.200Z,79.00
2023-02-07T00:53:36.501Z,79.10
2023-02-07T00:56:03.497Z,79.10
2023-02-07T00:58:33.444Z,79.20
2023-02-07T01:01:01.825Z,79.20
2023-02-07T01:03:28.595Z,79.20
2023-02-07T01:05:55.467Z,79.20
2023-02-07T01:08:22.238Z,79.20
2023-02-07T01:10:49.272Z,79.20
2023-02-07T01:13:17.001Z,79.20
2023-02-07T01:15:48.762Z,79.20
2023-02-07T01:18:19.909Z,79.30
2023-02-07T01:20:46.637Z,80.00
2023-02-07T01:23:14.959Z,79.20
2023-02-07T01:25:44.181Z,79.20
2023-02-07T01:28:14.664Z,79.20
2023-02-07T01:30:46.202Z,79.30
2023-02-07T01:33:13.083Z,79.20
2023-02-07T01:35:40.190Z,79.20
2023-02-07T01:38:10.363Z,79.20
2023-02-07T01:40:38.242Z,79.30
2023-02-07T01:43:11.230Z,79.30
2023-02-07T01:45:40.256Z,79.30
2023-02-07T01:48:22.312Z,79.30
2023-02-07T01:50:51.345Z,79.30
2023-02-07T01:53:22.608Z,79.20
2023-02-07T01:55:52.587Z,79.30
2023-02-07T01:58:19.567Z,79.30
2023-02-07T02:00:47.234Z,79.30
2023-02-07T02:03:14.392Z,79.30
2023-02-07T02:05:44.791Z,79.40
2023-02-07T02:08:11.987Z,79.50
2023-02-07T02:11:05.470Z,79.50
2023-02-07T02:13:47.518Z,79.50
2023-02-07T02:16:40.770Z,79.50
2023-02-07T02:19:19.317Z,79.40
2023-02-07T02:22:25.890Z,79.30
2023-02-07T02:25:23.613Z,79.30
2023-02-07T02:28:01.805Z,79.30
2023-02-07T02:30:48.484Z,79.30
2023-02-07T02:33:57.539Z,79.30
2023-02-07T02:36:43.353Z,79.30
2023-02-07T02:39:51.617Z,79.40
2023-02-07T02:42:26.478Z,79.30
2023-02-07T02:45:20.785Z,79.20
2023-02-07T02:47:53.192Z,79.30
2023-02-07T02:50:24.068Z,79.40
2023-02-07T02:52:51.489Z,79.20
2023-02-07T02:55:51.303Z,79.40
2023-02-07T02:58:29.385Z,79.40
2023-02-07T03:01:11.236Z,79.40
2023-02-07T03:04:11.822Z,79.40
2023-02-07T03:07:04.193Z,79.40
2023-02-07T03:09:52.164Z,79.40
2023-02-07T03:12:48.349Z,79.40
2023-02-07T03:15:15.018Z,79.30
2023-02-07T03:17:54.818Z,79.30
2023-02-07T03:20:30.417Z,79.30
2023-02-07T03:22:59.705Z,79.50
2023-02-07T03:25:28.972Z,79.40
2023-02-07T03:27:56.538Z,79.40
2023-02-07T03:30:32.839Z,80.30
2023-02-07T03:33:07.718Z,79.50
2023-02-07T03:35:48.001Z,79.60
2023-02-07T03:38:15.533Z,79.70
2023-02-07T03:40:48.857Z,79.60
2023-02-07T03:43:20.392Z,79.70
2023-02-07T03:45:47.102Z,79.70
2023-02-07T03:48:13.883Z,79.70
2023-02-07T03:50:40.597Z,79.70
2023-02-07T03:53:07.526Z,79.70
2023-02-07T03:55:35.605Z,79.70
2023-02-07T03:58:02.480Z,79.80
2023-02-07T04:00:29.248Z,79.70
2023-02-07T04:02:56.102Z,80.60
2023-02-07T04:05:22.953Z,79.80
2023-02-07T04:07:49.709Z,79.80
2023-02-07T04:10:16.582Z,79.80
2023-02-07T04:12:43.911Z,79.80
2023-02-07T04:15:11.473Z,79.90
2023-02-07T04:17:39.004Z,80.00
2023-02-07T04:20:06.664Z,79.80
2023-02-07T04:22:35.985Z,79.90
2023-02-07T04:25:03.008Z,79.90
2023-02-07T04:27:29.851Z,80.00
2023-02-07T04:29:56.600Z,80.00
2023-02-07T04:32:23.539Z,80.00
2023-02-07T04:34:50.323Z,80.00
2023-02-07T04:37:17.439Z,80.00
2023-02-07T04:39:44.276Z,80.00
2023-02-07T04:42:11.211Z,80.00
2023-02-07T04:44:37.970Z,80.00
2023-02-07T04:47:04.765Z,80.00
2023-02-07T04:49:34.618Z,80.10
2023-02-07T04:52:01.637Z,80.00
2023-02-07T04:54:28.345Z,80.00
2023-02-07T04:56:55.047Z,80.00
2023-02-07T04:59:21.849Z,80.10
2023-02-07T05:01:48.851Z,80.10
2023-02-07T05:04:15.616Z,80.00
2023-02-07T05:06:42.658Z,80.10
2023-02-07T05:09:09.468Z,80.20
2023-02-07T05:11:36.317Z,80.20
2023-02-07T05:14:03.090Z,80.20
2023-02-07T05:16:29.855Z,80.10
2023-02-07T05:18:56.656Z,80.10
2023-02-07T05:21:23.424Z,80.20
2023-02-07T05:23:50.348Z,80.10
2023-02-07T05:26:17.407Z,80.20
2023-02-07T05:28:44.845Z,80.10
2023-02-07T05:31:11.774Z,80.10
2023-02-07T05:33:38.896Z,80.10
2023-02-07T05:36:06.265Z,80.10
2023-02-07T05:38:34.029Z,80.20
2023-02-07T05:41:03.192Z,80.20
2023-02-07T05:43:30.014Z,80.30
2023-02-07T05:45:56.825Z,80.30
2023-02-07T05:48:23.603Z,80.30
2023-02-07T05:50:50.376Z,80.40
2023-02-07T05:53:17.245Z,80.30
2023-02-07T05:55:44.098Z,80.40
2023-02-07T05:58:10.804Z,80.30
2023-02-07T06:00:37.676Z,80.30
2023-02-07T06:03:07.291Z,80.30
2023-02-07T06:05:35.328Z,80.40
2023-02-07T06:08:02.076Z,80.30
2023-02-07T06:10:29.080Z,80.30
2023-02-07T06:12:55.839Z,80.40
2023-02-07T06:15:22.858Z,80.30
2023-02-07T06:17:49.622Z,80.30
2023-02-07T06:20:16.665Z,80.40
2023-02-07T06:22:46.520Z,80.30
2023-02-07T06:25:13.305Z,80.40
2023-02-07T06:27:41.604Z,80.40
2023-02-07T06:30:11.280Z,80.40
2023-02-07T06:32:38.202Z,80.40
2023-02-07T06:35:07.425Z,80.40
2023-02-07T06:37:34.646Z,80.40
2023-02-07T06:40:01.462Z,80.40
2023-02-07T06:42:28.362Z,80.40
2023-02-07T06:44:55.134Z,80.40
2023-02-07T06:47:21.868Z,80.40
2023-02-07T06:49:48.679Z,80.40
2023-02-07T06:52:15.803Z,80.30
2023-02-07T06:54:49.995Z,80.40
2023-02-07T06:57:16.829Z,80.40
2023-02-07T06:59:43.757Z,80.50
2023-02-07T07:02:12.904Z,80.50
2023-02-07T07:04:39.839Z,80.60
2023-02-07T07:07:06.998Z,80.50
2023-02-07T07:09:33.732Z,80.60
2023-02-07T07:12:00.647Z,80.60
2023-02-07T07:14:27.382Z,80.60
2023-02-07T07:16:56.824Z,80.60
2023-02-07T07:19:23.679Z,80.60
2023-02-07T07:21:50.627Z,80.60
2023-02-07T07:24:17.367Z,80.70
2023-02-07T07:26:49.783Z,80.70
2023-02-07T07:29:19.892Z,80.70
2023-02-07T07:31:47.467Z,80.70
2023-02-07T07:34:14.445Z,80.70
2023-02-07T07:36:41.520Z,81.50
2023-02-07T07:39:09.214Z,80.70
2023-02-07T07:41:35.978Z,81.60
2023-02-07T07:44:03.438Z,81.50
2023-02-07T07:46:30.706Z,80.70
2023-02-07T07:48:57.743Z,80.80
2023-02-07T07:51:24.439Z,80.90
2023-02-07T07:53:51.197Z,80.80
2023-02-07T07:56:17.985Z,80.80
2023-02-07T07:58:44.705Z,80.80
2023-02-07T08:01:11.606Z,81.70
2023-02-07T08:03:38.469Z,80.90
2023-02-07T08:06:08.049Z,80.90
2023-02-07T08:08:40.232Z,81.00
2023-02-07T08:11:09.076Z,81.00
2023-02-07T08:13:39.450Z,81.00
2023-02-07T08:16:11.131Z,81.00
2023-02-07T08:18:37.965Z,80.90
2023-02-07T08:21:04.857Z,80.90
2023-02-07T08:23:31.689Z,81.00
2023-02-07T08:25:58.507Z,81.00
2023-02-07T08:28:27.563Z,81.20
2023-02-07T08:30:54.668Z,81.10
2023-02-07T08:33:21.431Z,81.00
2023-02-07T08:35:50.406Z,80.90
2023-02-07T08:38:17.582Z,81.70
2023-02-07T08:40:46.424Z,81.40
2023-02-07T08:43:14.121Z,83.60
2023-02-07T08:45:43.099Z,83.80
2023-02-07T08:48:13.102Z,82.90
2023-02-07T08:50:40.414Z,81.90
2023-02-07T08:53:10.521Z,80.40
2023-02-07T08:55:40.152Z,78.80
2023-02-07T08:58:06.880Z,77.70
2023-02-07T09:00:35.492Z,76.50
2023-02-07T09:03:03.919Z,75.30
2023-02-07T09:05:34.488Z,74.10
2023-02-07T09:08:02.066Z,72.80
2023-02-07T09:10:28.904Z,72.00
2023-02-07T09:13:04.331Z,71.40
2023-02-07T09:15:31.153Z,71.20
2023-02-07T09:17:57.964Z,71.20
2023-02-07T09:20:27.549Z,72.40
2023-02-07T09:23:13.098Z,71.60
2023-02-07T09:25:40.818Z,71.80
2023-02-07T09:28:08.936Z,72.60
2023-02-07T09:30:35.934Z,73.10
2023-02-07T09:33:02.855Z,73.50
2023-02-07T09:35:29.578Z,74.00
2023-02-07T09:37:56.601Z,74.70
2023-02-07T09:40:23.557Z,75.10
2023-02-07T09:43:10.358Z,75.40
2023-02-07T09:45:42.303Z,76.00
2023-02-07T09:48:57.482Z,76.20
2023-02-07T09:51:25.298Z,76.40
2023-02-07T09:54:06.816Z,77.00
2023-02-07T09:56:35.684Z,77.50
2023-02-07T09:59:22.599Z,77.80
2023-02-07T10:01:55.939Z,78.20
2023-02-07T10:04:32.949Z,78.20
2023-02-07T10:07:03.090Z,78.30
2023-02-07T10:09:37.928Z,78.20
2023-02-07T10:12:18.466Z,78.30
2023-02-07T10:15:17.144Z,78.20
2023-02-07T10:17:55.744Z,78.30
2023-02-07T10:20:38.474Z,78.60
2023-02-07T10:23:14.593Z,78.80
2023-02-07T10:26:11.082Z,78.50
2023-02-07T10:29:15.115Z,78.60
2023-02-07T10:31:47.548Z,78.50
2023-02-07T10:34:18.764Z,78.60
2023-02-07T10:36:52.142Z,78.80
2023-02-07T10:39:40.614Z,79.00
2023-02-07T10:42:15.600Z,79.20
2023-02-07T10:44:43.396Z,79.10
2023-02-07T10:47:15.260Z,78.80
2023-02-07T10:49:44.050Z,78.70
2023-02-07T10:52:37.522Z,78.60
2023-02-07T10:55:07.997Z,78.60
2023-02-07T10:57:35.606Z,78.70
2023-02-07T11:00:24.314Z,78.60
2023-02-07T11:03:05.545Z,78.50
2023-02-07T11:05:35.556Z,78.60
2023-02-07T11:08:26.652Z,78.50
2023-02-07T11:10:59.747Z,78.50
2023-02-07T11:13:31.236Z,78.40
2023-02-07T11:16:06.139Z,78.50
2023-02-07T11:18:54.294Z,78.60
2023-02-07T11:21:34.971Z,78.40
2023-02-07T11:24:13.841Z,78.30
2023-02-07T11:27:02.361Z,78.20
2023-02-07T11:29:31.779Z,78.10
2023-02-07T11:32:00.540Z,78.10
2023-02-07T11:35:05.790Z,77.50
2023-02-07T11:37:51.917Z,77.60
2023-02-07T11:40:28.883Z,78.60
2023-02-07T11:43:18.346Z,77.50
2023-02-07T11:45:50.289Z,77.40
2023-02-07T11:48:24.471Z,77.10
2023-02-07T11:50:56.975Z,77.00
2023-02-07T11:53:43.042Z,76.90
2023-02-07T11:56:45.098Z,76.30
2023-02-07T11:59:23.847Z,76.80
2023-02-07T12:01:56.560Z,76.70
2023-02-07T12:04:33.444Z,76.40
2023-02-07T12:07:03.598Z,75.70
2023-02-07T12:09:52.717Z,75.90
2023-02-07T12:12:23.991Z,76.10
2023-02-07T12:15:20.943Z,76.10
2023-02-07T12:18:34.450Z,75.70
2023-02-07T12:21:22.644Z,75.90
2023-02-07T12:23:57.555Z,75.80
2023-02-07T12:26:35.622Z,75.80
2023-02-07T12:29:16.027Z,75.60
2023-02-07T12:31:58.987Z,75.60
2023-02-07T12:34:48.689Z,75.30
2023-02-07T12:37:30.691Z,75.30
2023-02-07T12:40:08.750Z,75.10
2023-02-07T12:42:46.341Z,74.70
2023-02-07T12:45:18.977Z,74.80
2023-02-07T12:48:29.935Z,74.60
2023-02-07T12:51:09.622Z,73.20
2023-02-07T12:54:23.720Z,73.90
2023-02-07T12:57:15.176Z,74.20
2023-02-07T13:00:28.129Z,74.10
2023-02-07T13:03:30.090Z,74.10
2023-02-07T13:06:02.541Z,74.10
2023-02-07T13:08:48.444Z,73.90
2023-02-07T13:11:37.369Z,73.50
2023-02-07T13:14:22.019Z,72.40
2023-02-07T13:17:13.368Z,72.00
2023-02-07T13:19:48.252Z,71.60
2023-02-07T13:22:25.410Z,71.10
2023-02-07T13:24:54.660Z,71.70
2023-02-07T13:27:24.624Z,71.80
2023-02-07T13:29:52.223Z,71.50
2023-02-07T13:32:25.494Z,71.50
2023-02-07T13:35:07.239Z,71.30
2023-02-07T13:37:58.572Z,71.00
2023-02-07T13:40:48.442Z,71.00
2023-02-07T13:43:21.016Z,71.20
2023-02-07T13:46:13.952Z,69.70
2023-02-07T13:48:44.468Z,69.70
2023-02-07T13:51:53.269Z,70.20
2023-02-07T13:54:44.178Z,70.20
2023-02-07T13:57:54.707Z,70.40
2023-02-07T14:00:25.127Z,70.60
2023-02-07T14:02:59.140Z,70.70
2023-02-07T14:05:28.182Z,70.30
2023-02-07T14:08:17.662Z,70.10
2023-02-07T14:10:57.868Z,69.90
2023-02-07T14:13:27.489Z,70.10
2023-02-07T14:16:02.074Z,70.10
2023-02-07T14:18:43.817Z,69.40
2023-02-07T14:21:20.644Z,69.50
2023-02-07T14:24:16.451Z,69.70
2023-02-07T14:26:52.242Z,69.60
2023-02-07T14:29:24.448Z,69.60
2023-02-07T14:32:01.853Z,69.30
2023-02-07T14:34:52.689Z,69.20
2023-02-07T14:38:00.098Z,69.00
2023-02-07T14:40:48.037Z,68.70
2023-02-07T14:43:15.185Z,68.00
2023-02-07T14:46:11.339Z,68.20
2023-02-07T14:48:47.401Z,68.10
2023-02-07T14:51:24.689Z,68.10
2023-02-07T14:54:06.506Z,68.00
2023-02-07T14:57:12.254Z,68.00
2023-02-07T14:59:43.898Z,68.20
2023-02-07T15:02:37.455Z,68.20
2023-02-07T15:05:26.212Z,68.30
2023-02-07T15:08:19.653Z,68.30
2023-02-07T15:11:03.685Z,68.30
2023-02-07T15:13:37.734Z,68.20
2023-02-07T15:16:13.358Z,68.10
2023-02-07T15:18:46.541Z,68.10
2023-02-07T15:21:19.754Z,68.20
2023-02-07T15:23:55.173Z,68.80
2023-02-07T15:26:21.965Z,67.90
2023-02-07T15:28:58.236Z,67.90
2023-02-07T15:31:25.409Z,67.80
2023-02-07T15:34:05.067Z,68.00
2023-02-07T15:36:45.155Z,67.80
2023-02-07T15:39:23.600Z,67.80
2023-02-07T15:41:54.399Z,67.70
2023-02-07T15:44:28.566Z,68.50
2023-02-07T15:47:02.330Z,67.70
2023-02-07T15:49:40.323Z,67.90
2023-02-07T15:52:33.240Z,68.80
2023-02-07T15:55:04.816Z,68.10
2023-02-07T15:57:35.957Z,68.40
2023-02-07T16:00:08.730Z,68.50
2023-02-07T16:02:40.878Z,68.50
2023-02-07T16:05:12.865Z,68.50
2023-02-07T16:07:40.309Z,68.50
2023-02-07T16:10:23.452Z,68.50
2023-02-07T16:13:01.611Z,68.70
2023-02-07T16:15:32.359Z,68.70
2023-02-07T16:18:00.495Z,68.80
2023-02-07T16:20:28.745Z,68.80
2023-02-07T16:23:01.865Z,68.70
2023-02-07T16:25:32.308Z,68.70
2023-02-07T16:28:00.434Z,68.70
2023-02-07T16:30:36.858Z,68.80
2023-02-07T16:33:08.112Z,68.70
2023-02-07T16:35:35.094Z,68.80
2023-02-07T16:38:05.821Z,68.80
2023-02-07T16:40:32.849Z,68.70
2023-02-07T16:43:02.232Z,68.70
2023-02-07T16:45:30.342Z,68.70
2023-02-07T16:47:59.193Z,68.80
2023-02-07T16:50:30.571Z,68.80
2023-02-07T16:52:57.996Z,68.70
2023-02-07T16:55:27.503Z,68.70
2023-02-07T16:57:57.267Z,68.70
2023-02-07T17:00:26.103Z,68.80
2023-02-07T17:02:53.756Z,68.70
2023-02-07T17:05:22.435Z,68.70
2023-02-07T17:07:50.506Z,68.70
2023-02-07T17:10:27.504Z,68.70
2023-02-07T17:12:54.503Z,68.70
2023-02-07T17:15:21.751Z,68.70
2023-02-07T17:17:48.661Z,68.80
2023-02-07T17:20:22.824Z,68.80
2023-02-07T17:22:51.098Z,69.00
2023-02-07T17:25:18.765Z,69.00
2023-02-07T17:27:48.824Z,69.00
2023-02-07T17:30:20.660Z,69.10
2023-02-07T17:32:47.526Z,69.20
2023-02-07T17:35:15.093Z,70.20
2023-02-07T17:37:44.679Z,69.30
2023-02-07T17:40:17.911Z,69.30
2023-02-07T17:42:44.623Z,69.30
2023-02-07T17:45:14.903Z,69.50
2023-02-07T17:47:41.710Z,69.50
2023-02-07T17:50:25.388Z,69.50
2023-02-07T17:52:52.179Z,69.60
2023-02-07T17:55:21.814Z,69.50
2023-02-07T17:57:48.703Z,69.60
2023-02-07T18:00:20.575Z,69.50
2023-02-07T18:02:47.753Z,69.60
2023-02-07T18:05:17.902Z,69.60
2023-02-07T18:07:46.446Z,69.60
2023-02-07T18:10:22.390Z,69.80
2023-02-07T18:12:49.460Z,70.00
2023-02-07T18:15:18.876Z,69.90
2023-02-07T18:17:47.520Z,70.00
2023-02-07T18:20:26.349Z,70.00
2023-02-07T18:22:55.077Z,70.20
2023-02-07T18:25:23.402Z,70.10
2023-02-07T18:27:51.530Z,70.20
2023-02-07T18:30:20.027Z,70.30
2023-02-07T18:32:47.204Z,70.30
2023-02-07T18:35:14.349Z,70.30
2023-02-07T18:37:41.589Z,70.40
2023-02-07T18:40:17.513Z,70.40
2023-02-07T18:42:47.625Z,70.50
2023-02-07T18:45:14.569Z,70.60
2023-02-07T18:47:44.572Z,70.50
2023-02-07T18:50:15.602Z,70.70
2023-02-07T18:52:42.513Z,70.70
2023-02-07T18:55:11.598Z,70.70
2023-02-07T18:57:38.541Z,70.80
2023-02-07T19:00:07.105Z,70.80
2023-02-07T19:02:33.864Z,70.90
2023-02-07T19:05:00.958Z,70.90
2023-02-07T19:07:27.919Z,70.90
2023-02-07T19:09:54.747Z,71.00
2023-02-07T19:12:21.611Z,71.00
2023-02-07T19:14:48.390Z,71.00
2023-02-07T19:17:16.314Z,71.10
2023-02-07T19:19:43.359Z,71.10
2023-02-07T19:22:10.139Z,71.30
2023-02-07T19:24:46.016Z,72.00
2023-02-07T19:27:12.965Z,71.30
2023-02-07T19:29:39.932Z,71.30
2023-02-07T19:32:08.935Z,71.40
2023-02-07T19:34:37.961Z,71.50
2023-02-07T19:37:04.964Z,71.50
2023-02-07T19:39:34.880Z,71.40
2023-02-07T19:42:01.596Z,71.50
2023-02-07T19:44:28.400Z,71.50
2023-02-07T19:46:55.208Z,71.50
2023-02-07T19:49:25.524Z,71.50
2023-02-07T19:51:55.301Z,71.60
2023-02-07T19:54:22.008Z,71.60
2023-02-07T19:56:52.461Z,71.50
2023-02-07T19:59:19.284Z,71.50
2023-02-07T20:01:46.373Z,71.70
2023-02-07T20:04:13.247Z,71.70
2023-02-07T20:06:40.038Z,71.60
2023-02-07T20:09:09.758Z,71.60
2023-02-07T20:11:36.742Z,71.70
2023-02-07T20:14:04.174Z,72.50
2023-02-07T20:16:34.688Z,71.70
2023-02-07T20:19:02.386Z,71.80
2023-02-07T20:21:31.665Z,71.80
2023-02-07T20:23:58.980Z,71.80
2023-02-07T20:26:36.555Z,71.90
2023-02-07T20:29:09.541Z,72.00
2023-02-07T20:31:37.239Z,71.90
2023-02-07T20:34:04.722Z,71.90
2023-02-07T20:36:35.996Z,71.90
2023-02-07T20:39:03.222Z,71.90
2023-02-07T20:41:30.309Z,71.90
2023-02-07T20:44:05.093Z,72.00
2023-02-07T20:46:34.478Z,72.00
2023-02-07T20:49:10.656Z,71.90
2023-02-07T20:51:38.121Z,72.00
2023-02-07T20:54:06.637Z,71.90
2023-02-07T20:56:33.927Z,72.00
2023-02-07T20:59:00.833Z,72.00
2023-02-07T21:01:30.115Z,71.90
2023-02-07T21:03:59.156Z,72.00
2023-02-07T21:06:26.354Z,72.00
2023-02-07T21:09:00.487Z,72.00
2023-02-07T21:11:39.460Z,72.00
2023-02-07T21:14:08.939Z,72.00
2023-02-07T21:16:44.884Z,72.10
2023-02-07T21:19:13.877Z,72.00
2023-02-07T21:21:41.567Z,71.90
2023-02-07T21:24:08.825Z,72.00
2023-02-07T21:26:36.176Z,72.00
2023-02-07T21:29:04.580Z,72.00
2023-02-07T21:31:34.766Z,72.00
2023-02-07T21:34:01.788Z,72.00
2023-02-07T21:36:31.334Z,72.00
2023-02-07T21:39:00.168Z,71.90
2023-02-07T21:41:28.703Z,71.90
2023-02-07T21:43:55.842Z,71.90
2023-02-07T21:46:25.855Z,72.00
2023-02-07T21:48:57.331Z,71.90
2023-02-07T21:51:25.995Z,72.00
2023-02-07T21:53:54.509Z,72.00
2023-02-07T21:56:25.865Z,72.10
2023-02-07T21:58:57.222Z,72.10
2023-02-07T22:01:25.179Z,72.00
2023-02-07T22:03:54.520Z,72.00
2023-02-07T22:06:22.664Z,72.00
2023-02-07T22:08:58.447Z,71.90
2023-02-07T22:11:28.119Z,72.00
2023-02-07T22:13:55.038Z,72.00
2023-02-07T22:16:24.346Z,71.90
2023-02-07T22:18:55.506Z,72.00
2023-02-07T22:21:25.044Z,72.10
2023-02-07T22:23:53.126Z,72.10
2023-02-07T22:26:20.499Z,72.20
2023-02-07T22:28:47.901Z,72.10
2023-02-07T22:31:26.243Z,72.10
2023-02-07T22:33:55.219Z,72.20
2023-02-07T22:36:28.346Z,72.20
2023-02-07T22:39:02.885Z,72.20
2023-02-07T22:41:31.136Z,72.20
2023-02-07T22:44:03.905Z,72.20
2023-02-07T22:46:31.268Z,72.20
2023-02-07T22:48:58.573Z,72.20
2023-02-07T22:51:30.461Z,72.10
2023-02-07T22:53:59.738Z,72.10
2023-02-07T22:56:29.263Z,72.20
2023-02-07T22:58:56.368Z,72.20
2023-02-07T23:01:24.479Z,72.90
2023-02-07T23:03:52.073Z,72.20
2023-02-07T23:06:22.616Z,72.20
2023-02-07T23:08:55.492Z,72.20
2023-02-07T23:11:23.507Z,72.30
2023-02-07T23:13:54.099Z,72.30
2023-02-07T23:16:24.556Z,72.30
2023-02-07T23:18:53.253Z,72.40
2023-02-07T23:21:22.057Z,72.40
2023-02-07T23:23:52.064Z,72.40
2023-02-07T23:26:21.884Z,72.50
2023-02-07T23:28:49.326Z,72.40
2023-02-07T23:31:18.352Z,72.40
2023-02-07T23:33:45.227Z,72.40
2023-02-07T23:36:12.753Z,72.40
2023-02-07T23:38:40.111Z,72.30
2023-02-07T23:41:09.788Z,72.40
2023-02-07T23:43:37.484Z,72.40
2023-02-07T23:46:05.488Z,72.50
2023-02-07T23:48:34.158Z,72.60
2023-02-07T23:51:03.641Z,72.60
2023-02-07T23:53:30.958Z,72.60
2023-02-07T23:55:58.440Z,72.60
2023-02-07T23:58:26.606Z,72.50
